createdAt,value
2023-04-22T00:03:54.159Z,13
2023-04-22T00:07:21.600Z,13
2023-04-22T00:09:24.109Z,11
2023-04-22T00:14:54.319Z,16
2023-04-22T00:25:54.731Z,14
2023-04-22T00:31:24.886Z,13
2023-04-22T00:47:55.351Z,17
2023-04-22T00:53:25.459Z,13
2023-04-22T01:04:25.907Z,12
2023-04-22T01:07:27.153Z,12
2023-04-22T01:09:55.985Z,13
2023-04-22T01:15:26.201Z,15
2023-04-22T01:20:56.359Z,12
2023-04-22T01:31:56.669Z,16
2023-04-22T01:37:26.888Z,15
2023-04-22T01:42:56.937Z,14
2023-04-22T01:48:27.113Z,15
2023-04-22T01:59:27.442Z,17
2023-04-22T02:04:57.742Z,15
2023-04-22T02:07:32.554Z,15
2023-04-22T02:10:27.834Z,14
2023-04-22T02:21:28.158Z,16
2023-04-22T02:26:58.431Z,14
2023-04-22T02:32:28.565Z,17
2023-04-22T02:43:28.798Z,16
2023-04-22T02:48:58.962Z,17
2023-04-22T02:54:29.142Z,13
2023-04-22T02:59:59.326Z,17
2023-04-22T03:06:22.267Z,16
2023-04-22T03:10:59.654Z,15
2023-04-22T03:22:00.034Z,16
2023-04-22T03:27:30.157Z,17
2023-04-22T03:38:30.509Z,16
2023-04-22T03:44:01.745Z,19
2023-04-22T03:49:30.772Z,17
2023-04-22T03:55:00.973Z,20
2023-04-22T04:00:31.184Z,17
2023-04-22T04:06:10.727Z,17
2023-04-22T04:50:02.627Z,15
2023-04-22T04:55:32.872Z,16
2023-04-22T05:06:16.161Z,16
2023-04-22T05:12:03.287Z,15
2023-04-22T05:17:33.811Z,16
2023-04-22T05:23:03.611Z,19
2023-04-22T05:28:33.776Z,14
2023-04-22T05:34:04.082Z,16
2023-04-22T05:39:34.115Z,14
2023-04-22T05:50:34.588Z,17
2023-04-22T05:56:04.663Z,15
2023-04-22T06:01:34.932Z,14
2023-04-22T06:06:21.611Z,14
2023-04-22T06:12:35.107Z,14
2023-04-22T06:23:35.445Z,15
2023-04-22T06:29:05.623Z,12
2023-04-22T06:34:35.775Z,16
2023-04-22T06:40:06.040Z,13
2023-04-22T07:06:27.047Z,13
2023-04-22T07:07:36.843Z,11
2023-04-22T07:13:06.945Z,10
2023-04-22T07:18:37.084Z,7
2023-04-22T07:24:07.267Z,11
2023-04-22T07:29:37.630Z,8
2023-04-22T07:35:07.753Z,7
2023-04-22T07:51:38.199Z,9
2023-04-22T07:57:08.344Z,6
2023-04-22T08:02:38.663Z,7
2023-04-22T08:06:32.570Z,7
2023-04-22T08:08:08.567Z,6
2023-04-22T08:30:09.396Z,8
2023-04-22T08:35:39.430Z,6
2023-04-22T08:41:09.549Z,5
2023-04-22T08:46:39.809Z,8
2023-04-22T08:52:09.954Z,6
2023-04-22T08:57:40.112Z,5
2023-04-22T09:03:10.251Z,6
2023-04-22T09:06:38.084Z,6
2023-04-22T09:08:40.367Z,10
2023-04-22T09:14:10.521Z,6
2023-04-22T09:25:10.869Z,5
2023-04-22T09:30:41.070Z,6
2023-04-22T09:36:11.214Z,7
2023-04-22T09:41:41.425Z,6
2023-04-22T09:47:11.534Z,7
2023-04-22T09:52:41.661Z,12
2023-04-22T09:58:11.841Z,5
2023-04-22T10:03:42.050Z,8
2023-04-22T10:06:43.565Z,8
2023-04-22T10:09:12.151Z,6
2023-04-22T10:14:42.334Z,5
2023-04-22T10:20:12.596Z,4
2023-04-22T10:25:42.712Z,7
2023-04-22T10:31:12.985Z,6
2023-04-22T10:36:43.006Z,4
2023-04-22T10:47:43.359Z,5
2023-04-22T10:58:43.642Z,4
2023-04-22T11:06:49.134Z,4
2023-04-22T11:15:14.164Z,6
2023-04-22T11:20:44.342Z,5
2023-04-22T11:26:14.518Z,10
2023-04-22T11:31:44.700Z,4
2023-04-22T11:37:14.820Z,5
2023-04-22T11:53:45.261Z,4
2023-04-22T11:59:15.412Z,6
2023-04-22T12:04:45.631Z,5
2023-04-22T12:06:54.603Z,5
2023-04-22T12:15:45.931Z,7
2023-04-22T12:26:46.242Z,5
2023-04-22T12:32:16.797Z,6
2023-04-22T12:48:46.940Z,3
2023-04-22T12:54:17.046Z,4
2023-04-22T12:59:47.286Z,6
2023-04-22T13:05:17.434Z,5
2023-04-22T13:07:00.053Z,5
2023-04-22T13:10:47.552Z,4
2023-04-22T13:16:17.712Z,5
2023-04-22T13:27:18.043Z,4
2023-04-22T13:32:48.192Z,13
2023-04-22T13:38:18.364Z,4
2023-04-22T13:43:48.524Z,8
2023-04-22T13:49:18.721Z,4
2023-04-22T13:54:48.862Z,8
2023-04-22T14:00:19.035Z,4
2023-04-22T14:07:05.571Z,4
2023-04-22T14:11:19.327Z,5
2023-04-22T14:16:49.638Z,4
2023-04-22T14:22:19.740Z,5
2023-04-22T14:33:19.972Z,4
2023-04-22T14:44:20.326Z,5
2023-04-22T14:49:50.503Z,3
2023-04-22T14:55:23.567Z,4
2023-04-22T15:00:50.825Z,6
2023-04-22T15:06:20.970Z,5
2023-04-22T15:07:11.156Z,5
2023-04-22T15:11:51.123Z,9
2023-04-22T15:17:21.329Z,4
2023-04-22T15:28:21.610Z,7
2023-04-22T15:33:51.789Z,5
2023-04-22T15:39:22.033Z,4
2023-04-22T15:44:52.148Z,3
2023-04-22T15:50:22.338Z,4
2023-04-22T16:01:22.716Z,6
2023-04-22T16:06:52.775Z,4
2023-04-22T16:07:16.573Z,4
2023-04-22T16:28:53.398Z,3
2023-04-22T16:39:53.761Z,4
2023-04-22T16:45:23.916Z,11
2023-04-22T16:50:54.095Z,4
2023-04-22T17:07:22.088Z,4
2023-04-22T17:12:54.795Z,6
2023-04-22T17:18:24.890Z,5
2023-04-22T17:29:25.225Z,6
2023-04-22T17:34:55.448Z,4
2023-04-22T17:40:25.650Z,6
2023-04-22T17:45:55.803Z,4
2023-04-22T17:51:25.988Z,6
2023-04-22T17:56:56.131Z,4
2023-04-22T18:02:26.694Z,5
2023-04-22T18:07:27.822Z,5
2023-04-22T18:18:56.756Z,8
2023-04-22T18:24:27.017Z,6
2023-04-22T18:29:57.096Z,5
2023-04-22T18:40:57.417Z,6
2023-04-22T18:46:27.690Z,4
2023-04-22T18:51:57.784Z,6
2023-04-22T18:57:28.049Z,4
2023-04-22T19:02:58.177Z,5
2023-04-22T19:07:33.190Z,5
2023-04-22T19:13:58.359Z,5
2023-04-22T19:35:59.163Z,7
2023-04-22T19:46:59.537Z,6
2023-04-22T19:52:29.615Z,4
2023-04-22T20:03:29.947Z,5
2023-04-22T20:07:38.600Z,5
2023-04-22T20:09:00.022Z,6
2023-04-22T20:14:30.172Z,4
2023-04-22T20:20:00.505Z,6
2023-04-22T20:31:00.791Z,8
2023-04-22T20:36:30.945Z,6
2023-04-22T20:42:01.081Z,7
2023-04-22T20:53:01.324Z,6
2023-04-22T20:58:31.491Z,7
2023-04-22T21:04:02.055Z,5
2023-04-22T21:07:44.135Z,5
2023-04-22T21:09:31.890Z,7
2023-04-22T21:20:32.228Z,5
2023-04-22T21:26:02.398Z,7
2023-04-22T21:31:32.663Z,6
2023-04-22T22:04:33.563Z,5
2023-04-22T22:07:49.340Z,5
2023-04-22T22:15:33.833Z,9
2023-04-22T22:21:03.936Z,6
2023-04-22T22:26:34.086Z,7
2023-04-22T22:32:04.423Z,8
2023-04-22T22:37:34.524Z,7
2023-04-22T22:43:04.574Z,6
2023-04-22T22:48:34.760Z,8
2023-04-22T22:54:04.960Z,6
2023-04-22T23:07:54.844Z,6
2023-04-22T23:16:05.685Z,7
2023-04-22T23:32:36.194Z,9
2023-04-22T23:38:06.244Z,7
2023-04-22T23:54:36.706Z,8
